createdAt,value
2023-02-18T00:00:13.293Z,60.33
2023-02-18T00:03:04.492Z,64.48
2023-02-18T00:05:35.024Z,61.99
2023-02-18T00:08:06.093Z,60.26
2023-02-18T00:10:36.706Z,63.54
2023-02-18T00:13:07.888Z,62.89
2023-02-18T00:15:38.677Z,60.47
2023-02-18T00:18:09.915Z,63.64
2023-02-18T00:20:41.225Z,60.41
2023-02-18T00:23:12.725Z,59.93
2023-02-18T00:25:43.240Z,63.32
2023-02-18T00:28:14.802Z,63.45
2023-02-18T00:30:45.537Z,60.67
2023-02-18T00:33:16.775Z,61.14
2023-02-18T00:35:47.299Z,60.39
2023-02-18T00:38:19.826Z,63.67
2023-02-18T00:40:51.244Z,64.32
2023-02-18T00:43:22.675Z,59.98
2023-02-18T00:45:53.720Z,62.89
2023-02-18T00:48:25.295Z,61.92
2023-02-18T00:50:55.740Z,60.07
2023-02-18T00:53:27.341Z,63.20
2023-02-18T00:55:57.849Z,59.89
2023-02-18T00:58:29.736Z,62.29
2023-02-18T01:01:00.369Z,63.61
2023-02-18T01:03:31.886Z,60.30
2023-02-18T01:06:02.449Z,62.79
2023-02-18T01:08:33.652Z,61.83
2023-02-18T01:11:04.735Z,59.83
2023-02-18T01:13:36.501Z,63.99
2023-02-18T01:16:07.633Z,61.78
2023-02-18T01:18:40.423Z,60.73
2023-02-18T01:21:11.623Z,59.90
2023-02-18T01:23:43.520Z,64.35
2023-02-18T01:26:14.151Z,62.32
2023-02-18T01:28:45.554Z,60.58
2023-02-18T01:31:16.366Z,63.83
2023-02-18T01:33:47.790Z,60.87
2023-02-18T01:36:18.416Z,62.21
2023-02-18T01:38:49.871Z,61.38
2023-02-18T01:41:20.408Z,60.89
2023-02-18T01:44:06.280Z,63.90
2023-02-18T01:46:37.029Z,59.20
2023-02-18T01:49:10.139Z,62.33
2023-02-18T01:51:41.856Z,59.93
2023-02-18T01:54:14.885Z,58.32
2023-02-18T01:56:49.296Z,62.74
2023-02-18T01:59:22.761Z,58.63
2023-02-18T02:01:51.815Z,61.71
2023-02-18T02:04:23.608Z,61.23
2023-02-18T02:06:54.240Z,58.04
2023-02-18T02:09:29.206Z,59.04
2023-02-18T02:12:19.267Z,59.85
2023-02-18T02:15:01.407Z,61.12
2023-02-18T02:17:37.846Z,60.53
2023-02-18T02:20:27.823Z,60.88
2023-02-18T02:23:14.784Z,61.88
2023-02-18T02:25:55.503Z,59.73
2023-02-18T02:28:42.615Z,56.54
2023-02-18T02:31:27.339Z,58.13
2023-02-18T02:55:56.720Z,57.55
2023-02-18T02:58:26.522Z,57.52
2023-02-18T03:01:08.416Z,57.87
2023-02-18T03:03:56.662Z,57.60
2023-02-18T03:06:37.996Z,56.63
2023-02-18T03:09:12.026Z,55.96
2023-02-18T03:11:45.765Z,56.43
2023-02-18T03:14:20.694Z,56.41
2023-02-18T03:16:55.494Z,56.71
2023-02-18T03:19:30.705Z,56.86
2023-02-18T03:22:06.318Z,57.97
2023-02-18T03:24:39.199Z,59.32
2023-02-18T03:27:14.299Z,60.50
2023-02-18T03:29:46.845Z,61.57
2023-02-18T03:32:19.361Z,62.43
2023-02-18T03:34:52.626Z,59.73
2023-02-18T03:37:23.715Z,58.96
2023-02-18T03:39:57.823Z,62.46
2023-02-18T03:42:29.845Z,60.98
2023-02-18T03:45:00.729Z,59.20
2023-02-18T03:47:32.071Z,61.92
2023-02-18T03:50:03.011Z,62.24
2023-02-18T03:52:37.226Z,58.10
2023-02-18T03:55:10.422Z,61.42
2023-02-18T03:57:41.161Z,60.50
2023-02-18T04:00:13.259Z,56.46
2023-02-18T04:02:44.228Z,57.70
2023-02-18T04:05:15.389Z,57.26
2023-02-18T04:07:46.248Z,58.17
2023-02-18T04:10:16.981Z,60.32
2023-02-18T04:12:47.830Z,61.77
2023-02-18T04:15:18.662Z,62.37
2023-02-18T04:17:49.472Z,59.29
2023-02-18T04:20:20.744Z,60.29
2023-02-18T04:22:51.511Z,63.08
2023-02-18T04:25:22.422Z,59.99
2023-02-18T04:27:53.151Z,59.32
2023-02-18T04:30:24.695Z,62.86
2023-02-18T04:32:56.116Z,61.73
2023-02-18T04:35:26.960Z,59.25
2023-02-18T04:37:57.807Z,59.52
2023-02-18T04:40:30.976Z,62.54
2023-02-18T04:43:02.203Z,60.73
2023-02-18T04:45:33.671Z,58.55
2023-02-18T04:48:04.855Z,60.23
2023-02-18T04:50:35.669Z,62.15
2023-02-18T04:53:06.383Z,60.71
2023-02-18T04:55:37.632Z,55.33
2023-02-18T04:58:10.419Z,53.00
2023-02-18T05:00:41.136Z,54.04
2023-02-18T05:03:12.090Z,52.86
2023-02-18T05:05:43.126Z,52.85
2023-02-18T05:08:14.276Z,51.09
2023-02-18T05:10:47.377Z,50.34
2023-02-18T05:13:18.657Z,50.38
2023-02-18T05:15:49.677Z,49.07
2023-02-18T05:18:20.687Z,48.22
2023-02-18T05:20:51.436Z,48.44
2023-02-18T05:23:22.254Z,48.02
2023-02-18T05:25:53.083Z,48.48
2023-02-18T05:28:24.373Z,48.24
2023-02-18T05:30:55.315Z,48.03
2023-02-18T05:33:26.312Z,48.23
2023-02-18T05:35:57.245Z,47.97
2023-02-18T05:38:28.048Z,48.17
2023-02-18T05:41:01.896Z,48.81
2023-02-18T05:43:52.693Z,49.26
2023-02-18T05:46:23.660Z,49.83
2023-02-18T05:48:55.188Z,50.53
2023-02-18T05:51:26.535Z,51.12
2023-02-18T05:53:57.877Z,51.94
2023-02-18T05:56:29.755Z,52.80
2023-02-18T05:59:00.727Z,51.87
2023-02-18T06:01:31.513Z,49.30
2023-02-18T06:04:02.386Z,48.87
2023-02-18T06:06:33.485Z,48.05
2023-02-18T06:09:05.071Z,46.94
2023-02-18T06:11:36.283Z,46.73
2023-02-18T06:14:07.222Z,46.59
2023-02-18T06:16:38.370Z,45.80
2023-02-18T06:19:09.606Z,46.38
2023-02-18T06:21:40.955Z,46.51
2023-02-18T06:24:11.838Z,47.01
2023-02-18T06:26:42.996Z,47.54
2023-02-18T06:29:13.771Z,47.68
2023-02-18T06:31:44.655Z,47.96
2023-02-18T06:34:15.995Z,48.02
2023-02-18T06:36:46.887Z,47.92
2023-02-18T06:39:17.520Z,47.80
2023-02-18T06:41:48.532Z,47.33
2023-02-18T06:44:19.390Z,47.28
2023-02-18T06:46:50.265Z,47.46
2023-02-18T06:49:21.272Z,47.90
2023-02-18T06:51:52.234Z,47.84
2023-02-18T06:54:22.982Z,47.79
2023-02-18T06:56:54.076Z,47.19
2023-02-18T06:59:25.072Z,46.83
2023-02-18T07:01:56.170Z,46.37
2023-02-18T07:04:27.003Z,46.07
2023-02-18T07:06:57.968Z,45.60
2023-02-18T07:09:28.946Z,45.80
2023-02-18T07:12:00.138Z,45.21
2023-02-18T07:14:31.075Z,45.48
2023-02-18T07:17:02.648Z,45.33
2023-02-18T07:19:33.568Z,45.23
2023-02-18T07:22:04.620Z,43.59
2023-02-18T07:24:35.374Z,43.46
2023-02-18T07:27:06.528Z,42.91
2023-02-18T07:29:37.604Z,43.23
2023-02-18T07:32:08.727Z,42.67
2023-02-18T07:34:39.590Z,42.77
2023-02-18T07:37:10.436Z,42.67
2023-02-18T07:39:43.245Z,43.41
2023-02-18T07:42:14.378Z,43.40
2023-02-18T07:44:45.283Z,43.47
2023-02-18T07:47:19.797Z,43.66
2023-02-18T07:49:50.648Z,44.37
2023-02-18T07:52:21.303Z,44.83
2023-02-18T07:54:52.392Z,44.98
2023-02-18T07:57:25.349Z,45.12
2023-02-18T07:59:56.346Z,45.16
2023-02-18T08:02:27.307Z,43.95
2023-02-18T08:04:58.247Z,43.34
2023-02-18T08:07:29.574Z,42.90
2023-02-18T08:10:00.802Z,44.34
2023-02-18T08:12:31.741Z,44.91
2023-02-18T08:15:02.486Z,44.11
2023-02-18T08:17:33.419Z,44.02
2023-02-18T08:20:04.601Z,43.84
2023-02-18T08:22:35.718Z,43.42
2023-02-18T08:25:08.342Z,43.21
2023-02-18T08:27:39.980Z,43.88
2023-02-18T08:30:11.719Z,43.94
2023-02-18T08:32:43.240Z,44.56
2023-02-18T08:35:14.495Z,44.74
2023-02-18T08:37:53.120Z,44.34
2023-02-18T08:40:25.244Z,43.98
2023-02-18T08:42:56.124Z,43.59
2023-02-18T08:45:27.405Z,43.74
2023-02-18T08:48:19.231Z,44.12
2023-02-18T08:50:49.401Z,44.66
2023-02-18T08:53:20.430Z,44.18
2023-02-18T08:55:51.249Z,44.07
2023-02-18T08:58:23.291Z,44.07
2023-02-18T09:00:54.040Z,44.22
2023-02-18T09:03:25.110Z,43.29
2023-02-18T09:05:56.474Z,43.13
2023-02-18T09:08:27.502Z,42.95
2023-02-18T09:10:59.255Z,42.46
2023-02-18T09:13:30.105Z,43.09
2023-02-18T09:16:03.892Z,43.13
2023-02-18T09:18:35.613Z,42.71
2023-02-18T09:21:08.248Z,43.36
2023-02-18T09:23:40.109Z,42.48
2023-02-18T09:26:12.400Z,42.80
2023-02-18T09:28:43.969Z,42.89
2023-02-18T09:31:18.290Z,43.76
2023-02-18T09:33:50.941Z,44.37
2023-02-18T09:36:22.365Z,44.12
2023-02-18T09:38:53.294Z,44.29
2023-02-18T09:41:29.300Z,44.09
2023-02-18T09:44:02.108Z,44.36
2023-02-18T09:46:34.628Z,44.43
2023-02-18T09:49:08.521Z,45.20
2023-02-18T09:51:39.903Z,44.80
2023-02-18T09:54:12.571Z,45.45
2023-02-18T09:56:44.712Z,45.52
2023-02-18T09:59:17.503Z,45.80
2023-02-18T10:01:50.161Z,46.08
2023-02-18T10:04:24.480Z,46.78
2023-02-18T10:06:58.128Z,47.15
2023-02-18T10:09:31.477Z,47.95
2023-02-18T10:12:07.387Z,48.60
2023-02-18T10:14:38.172Z,48.70
2023-02-18T10:17:10.237Z,48.73
2023-02-18T10:19:42.241Z,48.97
2023-02-18T10:22:15.050Z,48.75
2023-02-18T10:24:49.582Z,48.24
2023-02-18T10:27:23.287Z,48.33
2023-02-18T10:29:54.252Z,48.39
2023-02-18T10:32:26.271Z,48.44
2023-02-18T10:35:01.309Z,48.12
2023-02-18T10:37:42.263Z,46.50
2023-02-18T10:40:15.670Z,47.14
2023-02-18T10:42:50.511Z,47.70
2023-02-18T10:45:26.254Z,47.87
2023-02-18T10:48:05.147Z,48.02
2023-02-18T10:50:38.372Z,48.33
2023-02-18T10:53:12.883Z,48.74
2023-02-18T10:55:44.487Z,49.23
2023-02-18T10:58:28.631Z,50.10
2023-02-18T11:01:00.410Z,50.89
2023-02-18T11:03:40.195Z,51.43
2023-02-18T11:06:18.917Z,51.91
2023-02-18T11:08:51.179Z,52.23
2023-02-18T11:11:25.335Z,52.41
2023-02-18T11:13:57.187Z,52.87
2023-02-18T11:16:37.661Z,53.90
2023-02-18T11:19:30.656Z,54.34
2023-02-18T11:22:08.092Z,54.07
2023-02-18T11:24:40.813Z,54.36
2023-02-18T11:27:14.676Z,54.50
2023-02-18T11:29:45.621Z,54.90
2023-02-18T11:32:17.193Z,55.02
2023-02-18T11:34:48.928Z,55.21
2023-02-18T11:37:21.779Z,55.66
2023-02-18T11:39:54.332Z,56.28
2023-02-18T11:42:26.976Z,56.84
2023-02-18T11:44:58.532Z,58.18
2023-02-18T11:47:32.536Z,59.44
2023-02-18T11:50:16.940Z,60.49
2023-02-18T11:52:49.472Z,61.75
2023-02-18T11:55:21.850Z,62.32
2023-02-18T11:57:56.297Z,58.54
2023-02-18T12:00:38.630Z,58.43
2023-02-18T12:03:15.202Z,61.26
2023-02-18T12:05:46.526Z,60.94
2023-02-18T12:08:20.179Z,58.42
2023-02-18T12:10:52.630Z,61.36
2023-02-18T12:13:27.367Z,61.39
2023-02-18T12:16:05.483Z,59.04
2023-02-18T12:18:42.875Z,62.70
2023-02-18T12:21:28.155Z,60.00
2023-02-18T12:24:04.427Z,59.37
2023-02-18T12:26:40.059Z,62.64
2023-02-18T12:29:21.756Z,58.84
2023-02-18T12:32:06.675Z,60.84
2023-02-18T12:34:45.082Z,61.21
2023-02-18T12:37:33.182Z,58.75
2023-02-18T12:40:09.234Z,61.24
2023-02-18T12:42:46.553Z,61.46
2023-02-18T12:45:33.272Z,57.88
2023-02-18T12:48:20.469Z,61.15
2023-02-18T12:50:58.597Z,61.24
2023-02-18T12:53:47.450Z,59.15
2023-02-18T12:56:31.660Z,62.22
2023-02-18T12:59:06.447Z,60.40
2023-02-18T13:01:40.114Z,59.76
2023-02-18T13:04:09.239Z,62.91
2023-02-18T13:24:52.837Z,60.69
2023-02-18T13:27:26.438Z,63.40
2023-02-18T13:30:00.333Z,59.56
2023-02-18T13:32:33.084Z,59.76
2023-02-18T13:35:07.498Z,63.56
2023-02-18T13:37:45.027Z,62.36
2023-02-18T13:40:16.942Z,58.17
2023-02-18T13:42:47.663Z,59.88
2023-02-18T13:45:29.384Z,63.70
2023-02-18T13:48:00.626Z,61.49
2023-02-18T13:50:33.051Z,58.89
2023-02-18T13:53:23.526Z,62.55
2023-02-18T13:55:56.256Z,61.69
2023-02-18T13:58:30.451Z,58.78
2023-02-18T14:01:03.627Z,62.52
2023-02-18T14:03:38.259Z,62.15
2023-02-18T14:06:20.047Z,58.86
2023-02-18T14:09:03.567Z,63.52
2023-02-18T14:11:40.865Z,61.74
2023-02-18T14:14:31.198Z,60.13
2023-02-18T14:17:34.238Z,59.72
2023-02-18T14:20:22.470Z,63.55
2023-02-18T14:22:53.698Z,61.31
2023-02-18T14:25:33.264Z,60.99
2023-02-18T14:28:05.458Z,63.57
2023-02-18T14:30:39.828Z,63.52
2023-02-18T14:33:16.764Z,62.14
2023-02-18T14:35:51.133Z,60.30
2023-02-18T14:38:27.774Z,59.71
2023-02-18T14:41:06.621Z,64.75
2023-02-18T14:43:48.728Z,63.67
2023-02-18T14:46:27.546Z,63.88
2023-02-18T14:49:14.436Z,62.54
2023-02-18T14:51:48.482Z,61.45
2023-02-18T14:54:21.115Z,61.35
2023-02-18T14:56:55.790Z,58.97
2023-02-18T14:59:27.865Z,62.76
2023-02-18T15:01:59.404Z,65.74
2023-02-18T15:04:31.256Z,64.24
2023-02-18T15:07:03.432Z,63.33
2023-02-18T15:09:34.509Z,62.68
2023-02-18T15:12:06.911Z,63.83
2023-02-18T15:14:39.828Z,60.04
2023-02-18T15:17:16.085Z,63.04
2023-02-18T15:19:50.569Z,66.40
2023-02-18T15:22:22.875Z,62.99
2023-02-18T15:24:55.357Z,62.22
2023-02-18T15:27:28.067Z,61.72
2023-02-18T15:30:00.574Z,60.28
2023-02-18T15:32:33.994Z,60.34
2023-02-18T15:35:16.097Z,60.50
2023-02-18T15:37:48.156Z,62.35
2023-02-18T15:40:19.729Z,61.62
2023-02-18T15:42:52.106Z,61.80
2023-02-18T15:45:24.094Z,60.97
2023-02-18T15:47:56.666Z,60.21
2023-02-18T15:50:29.102Z,61.87
2023-02-18T15:53:01.982Z,61.16
2023-02-18T15:55:35.159Z,60.00
2023-02-18T15:58:07.057Z,60.30
2023-02-18T16:00:40.618Z,59.90
2023-02-18T16:03:14.339Z,63.16
2023-02-18T16:05:43.850Z,64.89
2023-02-18T16:08:16.870Z,63.80
2023-02-18T16:10:50.533Z,63.44
2023-02-18T16:13:21.876Z,62.36
2023-02-18T16:15:53.936Z,61.14
2023-02-18T16:18:26.830Z,62.79
2023-02-18T16:20:59.750Z,62.50
2023-02-18T16:23:36.541Z,62.04
2023-02-18T16:26:28.426Z,61.84
2023-02-18T16:29:06.171Z,60.39
2023-02-18T16:31:37.195Z,61.29
2023-02-18T16:34:08.553Z,65.96
2023-02-18T16:36:59.197Z,65.87
2023-02-18T16:39:32.408Z,64.21
2023-02-18T16:42:03.422Z,64.32
2023-02-18T16:44:35.185Z,61.80
2023-02-18T16:47:06.369Z,60.18
2023-02-18T16:49:37.579Z,61.28
2023-02-18T16:52:10.664Z,61.41
2023-02-18T16:54:41.601Z,62.88
2023-02-18T16:57:12.658Z,66.01
2023-02-18T16:59:44.223Z,64.02
2023-02-18T17:02:19.155Z,61.61
2023-02-18T17:04:54.821Z,62.46
2023-02-18T17:07:25.503Z,60.97
2023-02-18T17:09:56.910Z,60.87
2023-02-18T17:12:27.585Z,60.60
2023-02-18T17:14:58.929Z,61.35
2023-02-18T17:17:30.422Z,61.76
2023-02-18T17:20:01.642Z,62.12
2023-02-18T17:22:32.510Z,62.22
2023-02-18T17:25:03.919Z,61.85
2023-02-18T17:27:34.642Z,62.62
2023-02-18T17:30:06.242Z,63.55
2023-02-18T17:32:37.141Z,65.13
2023-02-18T17:35:08.846Z,64.87
2023-02-18T17:37:39.732Z,65.85
2023-02-18T17:40:14.266Z,63.88
2023-02-18T17:42:45.085Z,67.22
2023-02-18T17:45:20.298Z,65.13
2023-02-18T17:47:51.368Z,67.00
2023-02-18T17:50:22.343Z,66.02
2023-02-18T17:52:53.513Z,64.57
2023-02-18T17:55:25.719Z,65.57
2023-02-18T17:57:56.414Z,65.06
2023-02-18T18:00:29.029Z,63.24
2023-02-18T18:03:00.312Z,61.64
2023-02-18T18:05:33.303Z,61.82
2023-02-18T18:08:04.757Z,61.24
2023-02-18T18:10:37.484Z,63.18
2023-02-18T18:13:09.551Z,63.98
2023-02-18T18:15:42.858Z,64.09
2023-02-18T18:18:14.807Z,62.69
2023-02-18T18:20:47.031Z,62.91
2023-02-18T18:23:19.437Z,61.80
2023-02-18T18:25:51.914Z,62.65
2023-02-18T18:28:22.756Z,61.38
2023-02-18T18:30:55.501Z,63.80
2023-02-18T18:33:27.197Z,63.13
2023-02-18T18:35:59.427Z,62.48
2023-02-18T18:38:30.608Z,62.14
2023-02-18T18:41:03.264Z,64.14
2023-02-18T18:43:35.868Z,63.78
2023-02-18T18:46:07.230Z,62.64
2023-02-18T18:48:38.534Z,64.00
2023-02-18T18:51:16.168Z,63.69
2023-02-18T18:53:47.657Z,62.48
2023-02-18T18:56:18.961Z,61.86
2023-02-18T18:58:49.996Z,63.89
2023-02-18T19:01:23.406Z,66.19
2023-02-18T19:03:52.689Z,62.86
2023-02-18T19:06:23.830Z,62.77
2023-02-18T19:08:55.176Z,61.98
2023-02-18T19:11:26.535Z,61.40
2023-02-18T19:13:57.461Z,61.89
2023-02-18T19:16:30.850Z,61.24
2023-02-18T19:19:04.440Z,61.67
2023-02-18T19:21:36.256Z,62.17
2023-02-18T19:24:07.157Z,61.01
2023-02-18T19:26:39.324Z,62.12
2023-02-18T19:29:09.844Z,60.77
2023-02-18T19:31:41.156Z,63.85
2023-02-18T19:34:12.068Z,64.83
2023-02-18T19:36:45.474Z,62.02
2023-02-18T19:39:16.319Z,60.00
2023-02-18T19:41:47.707Z,63.02
2023-02-18T19:44:18.299Z,62.41
2023-02-18T19:46:49.480Z,61.55
2023-02-18T19:49:20.008Z,59.24
2023-02-18T19:51:51.866Z,63.02
2023-02-18T19:54:22.702Z,63.09
2023-02-18T19:56:53.993Z,62.25
2023-02-18T19:59:25.043Z,60.30
2023-02-18T20:01:56.390Z,59.58
2023-02-18T20:04:27.375Z,62.94
2023-02-18T20:06:58.942Z,59.25
2023-02-18T20:09:29.882Z,63.05
2023-02-18T20:12:00.916Z,63.20
2023-02-18T20:14:31.908Z,60.24
2023-02-18T20:17:03.101Z,63.29
2023-02-18T20:19:35.362Z,59.59
2023-02-18T20:22:07.942Z,63.69
2023-02-18T20:24:40.292Z,62.02
2023-02-18T20:27:11.859Z,61.10
2023-02-18T20:29:42.897Z,64.68
2023-02-18T20:32:15.506Z,60.76
2023-02-18T20:34:48.144Z,60.49
2023-02-18T20:37:19.354Z,62.51
2023-02-18T20:39:50.030Z,59.97
2023-02-18T20:42:21.336Z,61.60
2023-02-18T20:44:52.732Z,63.00
2023-02-18T20:47:24.116Z,60.74
2023-02-18T20:49:55.007Z,63.31
2023-02-18T20:52:26.370Z,62.27
2023-02-18T20:54:57.918Z,61.58
2023-02-18T20:57:29.127Z,60.38
2023-02-18T21:00:00.004Z,64.35
2023-02-18T21:02:31.763Z,63.21
2023-02-18T21:05:03.448Z,62.00
2023-02-18T21:07:35.037Z,62.84
2023-02-18T21:10:06.799Z,64.07
2023-02-18T21:12:37.797Z,62.80
2023-02-18T21:15:09.220Z,61.52
2023-02-18T21:17:40.573Z,62.41
2023-02-18T21:20:11.966Z,63.56
2023-02-18T21:22:43.264Z,61.77
2023-02-18T21:25:14.694Z,62.76
2023-02-18T21:27:46.001Z,61.89
2023-02-18T21:30:16.814Z,61.26
2023-02-18T21:32:48.033Z,62.26
2023-02-18T21:35:18.853Z,60.76
2023-02-18T21:37:50.320Z,64.55
2023-02-18T21:40:21.648Z,64.12
2023-02-18T21:42:52.721Z,60.36
2023-02-18T21:45:23.418Z,60.78
2023-02-18T21:47:54.416Z,64.12
2023-02-18T21:50:26.669Z,62.09
2023-02-18T21:53:01.054Z,60.18
2023-02-18T21:55:32.161Z,61.15
2023-02-18T21:58:03.130Z,63.58
2023-02-18T22:00:33.675Z,60.35
2023-02-18T22:03:04.924Z,63.25
2023-02-18T22:05:35.864Z,60.96
2023-02-18T22:08:06.882Z,61.10
2023-02-18T22:10:39.709Z,60.41
2023-02-18T22:13:10.603Z,60.03
2023-02-18T22:15:42.120Z,63.71
2023-02-18T22:18:13.179Z,63.02
2023-02-18T22:20:43.835Z,60.31
2023-02-18T22:23:14.990Z,64.65
2023-02-18T22:25:45.812Z,61.40
2023-02-18T22:28:17.560Z,61.72
2023-02-18T22:30:48.503Z,63.45
2023-02-18T22:33:20.212Z,59.86
2023-02-18T22:35:51.398Z,61.78
2023-02-18T22:38:22.811Z,63.06
2023-02-18T22:40:53.375Z,60.44
2023-02-18T22:43:24.621Z,60.08
2023-02-18T22:45:55.311Z,61.99
2023-02-18T22:48:26.811Z,63.43
2023-02-18T22:50:57.434Z,60.59
2023-02-18T22:53:28.621Z,61.12
2023-02-18T22:56:01.569Z,59.42
2023-02-18T22:58:32.401Z,65.35
2023-02-18T23:01:03.334Z,63.36
2023-02-18T23:03:34.090Z,60.55
2023-02-18T23:06:05.821Z,67.07
2023-02-18T23:08:36.528Z,64.40
2023-02-18T23:11:09.066Z,61.19
2023-02-18T23:13:40.442Z,60.20
2023-02-18T23:16:13.410Z,61.22
2023-02-18T23:18:44.311Z,65.62
2023-02-18T23:21:21.792Z,62.58
2023-02-18T23:23:54.273Z,59.81
2023-02-18T23:26:25.840Z,63.17
2023-02-18T23:28:57.171Z,63.08
2023-02-18T23:31:28.829Z,62.19
2023-02-18T23:34:00.793Z,59.88
2023-02-18T23:36:32.550Z,60.80
2023-02-18T23:39:05.478Z,64.35
2023-02-18T23:41:36.719Z,62.06
2023-02-18T23:44:08.690Z,62.06
2023-02-18T23:46:39.636Z,62.52
2023-02-18T23:49:12.880Z,62.27
2023-02-18T23:51:43.936Z,59.96
2023-02-18T23:54:14.758Z,63.76
2023-02-18T23:56:45.809Z,63.19
2023-02-18T23:59:16.927Z,60.61
